Weather at Shellbrook Airport

Public forecast

Using degrees Celsius for public forecast. Weather courtesy of forecast.io.

Closest aviation weather report (METAR) to Shellbrook Airport

Closest report is Prince Albert Glass Field, 24.8 nm (46.0 km) E. Retrieved 2020/11/26 19:00 UTC (2 hours ago):

CYPA 261900Z 30013G21KT 12SM -SN OVC022 M07/M11 A2983 RMK SC8 SLP130

Closest aviation forecast (TAF) to Shellbrook Airport

Closest forecast is Prince Albert Glass Field, 24.8 nm (46.0 km) E. Retrieved 2020/11/26 19:39 UTC (1 hour ago):

TAF CYPA 261838Z 2619/2707 31012KT P6SM OVC025 TEMPO 2619/2622 P6SM -SN OVC020 FM262200 30012KT P6SM SCT030 TEMPO 2622/2624 BKN030 BECMG 2700/2702 22010KT FM270500 22010KT 6SM -SN OVC030 TEMPO 2705/2707 2SM -SN OVC012 RMK NXT FCST BY 270100Z